createdAt,value
2023-04-19T00:00:47.022Z,17
2023-04-19T00:01:54.925Z,18
2023-04-19T00:03:01.879Z,19
2023-04-19T00:04:08.844Z,21
2023-04-19T00:05:15.551Z,18
2023-04-19T00:06:22.390Z,17
2023-04-19T00:07:29.394Z,18
2023-04-19T00:08:36.296Z,17
2023-04-19T00:09:43.338Z,19
2023-04-19T00:10:50.200Z,18
2023-04-19T00:11:57.097Z,19
2023-04-19T00:13:03.990Z,18
2023-04-19T00:14:10.885Z,19
2023-04-19T00:15:17.770Z,18
2023-04-19T00:16:24.582Z,17
2023-04-19T00:17:31.411Z,18
2023-04-19T00:18:38.282Z,17
2023-04-19T00:19:45.308Z,17
2023-04-19T00:20:53.084Z,18
2023-04-19T01:25:06.124Z,19
2023-04-19T01:26:12.977Z,22
2023-04-19T01:27:19.942Z,24
2023-04-19T01:28:26.769Z,25
2023-04-19T01:29:34.540Z,25
2023-04-19T01:30:41.445Z,22
2023-04-19T01:31:48.315Z,27
2023-04-19T01:32:55.112Z,26
2023-04-19T01:34:01.897Z,23
2023-04-19T01:35:08.708Z,21
2023-04-19T01:36:15.544Z,23
2023-04-19T01:37:22.378Z,23
2023-04-19T01:38:29.176Z,22
2023-04-19T01:39:36.047Z,23
2023-04-19T01:40:42.848Z,24
2023-04-19T01:41:49.731Z,23
2023-04-19T01:42:56.468Z,25
2023-04-19T01:44:03.288Z,22
2023-04-19T01:45:10.076Z,21
2023-04-19T01:46:17.877Z,23
2023-04-19T01:47:24.696Z,19
2023-04-19T01:48:31.524Z,21
2023-04-19T01:49:38.324Z,22
2023-04-19T01:50:45.083Z,22
2023-04-19T01:51:52.009Z,22
2023-04-19T01:52:58.793Z,22
2023-04-19T01:54:05.672Z,19
2023-04-19T01:55:12.472Z,20
2023-04-19T01:56:19.310Z,21
2023-04-19T01:57:26.113Z,19
2023-04-19T01:58:32.896Z,20
2023-04-19T01:59:39.732Z,22
2023-04-19T02:00:46.639Z,17
2023-04-19T02:01:53.485Z,19
2023-04-19T02:03:00.682Z,20
2023-04-19T02:04:07.459Z,20
2023-04-19T02:05:14.189Z,18
2023-04-19T02:06:21.043Z,19
2023-04-19T02:07:27.869Z,19
2023-04-19T02:08:34.680Z,19
2023-04-19T02:09:41.532Z,18
2023-04-19T02:10:48.328Z,15
2023-04-19T02:11:56.026Z,17
2023-04-19T02:13:02.785Z,16
2023-04-19T02:14:09.585Z,17
2023-04-19T02:15:16.381Z,14
2023-04-19T02:16:25.415Z,17
2023-04-19T02:17:32.259Z,19
2023-04-19T02:18:40.000Z,17
2023-04-19T02:19:46.737Z,17
2023-04-19T02:20:53.524Z,16
2023-04-19T02:22:00.321Z,18
2023-04-19T02:23:07.186Z,24
2023-04-19T02:24:14.090Z,16
2023-04-19T02:25:20.872Z,16
2023-04-19T02:26:27.762Z,18
2023-04-19T02:27:34.643Z,18
2023-04-19T02:28:41.450Z,18
2023-04-19T02:29:48.266Z,18
2023-04-19T02:30:55.027Z,16
2023-04-19T02:32:01.884Z,19
2023-04-19T02:33:08.716Z,18
2023-04-19T02:34:15.765Z,16
2023-04-19T02:35:22.288Z,18
2023-04-19T02:36:29.082Z,17
2023-04-19T02:37:35.971Z,17
2023-04-19T02:38:42.747Z,18
2023-04-19T02:39:50.661Z,18
2023-04-19T02:40:57.496Z,18
2023-04-19T02:42:04.277Z,17
2023-04-19T02:43:11.275Z,18
2023-04-19T02:44:18.124Z,21
2023-04-19T02:45:24.875Z,20
2023-04-19T02:46:31.804Z,20
2023-04-19T02:47:38.633Z,23
2023-04-19T02:48:45.349Z,20
2023-04-19T02:49:52.167Z,21
2023-04-19T02:50:59.025Z,21
2023-04-19T02:52:05.931Z,21
2023-04-19T02:53:12.708Z,21
2023-04-19T02:54:19.496Z,23
2023-04-19T02:55:26.308Z,21
2023-04-19T02:56:33.156Z,22
2023-04-19T02:57:40.018Z,21
2023-04-19T02:58:46.833Z,20
2023-04-19T02:59:53.625Z,17
2023-04-19T03:01:00.438Z,16
2023-04-19T03:02:07.268Z,16
2023-04-19T03:03:14.125Z,18
2023-04-19T03:04:20.986Z,17
2023-04-19T03:05:27.776Z,16
2023-04-19T03:06:34.638Z,16
2023-04-19T03:07:43.895Z,18
2023-04-19T03:08:48.311Z,16
2023-04-19T03:09:55.161Z,16
2023-04-19T03:11:02.046Z,14
2023-04-19T03:12:08.913Z,15
2023-04-19T03:13:15.736Z,16
2023-04-19T03:14:22.582Z,17
2023-04-19T03:15:29.391Z,16
2023-04-19T03:16:36.521Z,15
2023-04-19T03:17:43.339Z,14
2023-04-19T03:18:50.142Z,17
2023-04-19T03:19:56.996Z,16
2023-04-19T03:21:03.858Z,16
2023-04-19T03:22:10.674Z,13
2023-04-19T03:23:17.534Z,15
2023-04-19T03:24:24.466Z,15
2023-04-19T03:25:31.350Z,13
2023-04-19T03:26:38.238Z,14
2023-04-19T03:27:45.049Z,13
2023-04-19T03:28:51.921Z,15
2023-04-19T03:29:58.755Z,15
2023-04-19T03:31:05.549Z,16
2023-04-19T03:32:12.403Z,14
2023-04-19T03:33:19.214Z,16
2023-04-19T03:34:25.991Z,15
2023-04-19T03:35:32.793Z,15
2023-04-19T03:36:39.638Z,16
2023-04-19T03:37:46.520Z,14
2023-04-19T03:38:53.422Z,16
2023-04-19T03:40:00.245Z,19
2023-04-19T03:41:07.154Z,16
2023-04-19T03:42:22.078Z,15
2023-04-19T03:43:28.884Z,15
2023-04-19T03:44:35.702Z,15
2023-04-19T03:45:42.540Z,14
2023-04-19T03:46:49.299Z,16
2023-04-19T03:47:56.206Z,15
2023-04-19T03:49:03.015Z,15
2023-04-19T03:50:09.821Z,14
2023-04-19T03:51:16.661Z,14
2023-04-19T03:52:23.458Z,16
2023-04-19T03:53:30.336Z,14
2023-04-19T03:54:37.166Z,15
2023-04-19T03:55:43.994Z,14
2023-04-19T03:56:50.814Z,18
2023-04-19T03:57:58.446Z,14
2023-04-19T03:59:05.194Z,13
2023-04-19T04:00:12.084Z,15
2023-04-19T04:01:19.099Z,13
2023-04-19T04:02:25.989Z,16
2023-04-19T04:03:32.872Z,16
2023-04-19T04:04:39.733Z,14
2023-04-19T04:05:46.390Z,15
2023-04-19T04:06:53.232Z,14
2023-04-19T04:08:00.008Z,14
2023-04-19T04:09:06.794Z,15
2023-04-19T04:10:13.637Z,15
2023-04-19T04:11:20.506Z,14
2023-04-19T04:12:27.339Z,14
2023-04-19T04:13:34.185Z,14
2023-04-19T04:14:40.987Z,14
2023-04-19T04:15:47.792Z,15
2023-04-19T04:16:54.794Z,14
2023-04-19T04:18:01.733Z,15
2023-04-19T04:19:08.465Z,14
2023-04-19T04:20:15.274Z,16
2023-04-19T04:21:22.227Z,14
2023-04-19T04:22:29.068Z,15
2023-04-19T04:23:37.854Z,16
2023-04-19T04:24:44.605Z,13
2023-04-19T04:25:51.595Z,15
2023-04-19T04:27:01.174Z,15
2023-04-19T04:28:08.039Z,14
2023-04-19T04:29:14.866Z,13
2023-04-19T04:30:21.710Z,14
2023-04-19T04:31:28.556Z,14
2023-04-19T04:32:35.830Z,13
2023-04-19T04:33:42.281Z,12
2023-04-19T04:34:49.110Z,12
2023-04-19T04:35:55.999Z,13
2023-04-19T04:37:02.895Z,14
2023-04-19T04:38:17.809Z,14
2023-04-19T04:39:16.537Z,13
2023-04-19T04:40:23.391Z,13
2023-04-19T04:41:30.246Z,13
2023-04-19T04:42:37.082Z,13
2023-04-19T04:43:43.842Z,13
2023-04-19T04:44:50.747Z,13
2023-04-19T04:45:57.516Z,13
2023-04-19T04:47:04.349Z,14
2023-04-19T04:48:11.194Z,15
2023-04-19T04:49:18.027Z,13
2023-04-19T04:50:24.860Z,14
2023-04-19T04:51:31.886Z,14
2023-04-19T04:52:38.715Z,16
2023-04-19T04:53:45.556Z,17
2023-04-19T04:54:52.409Z,19
2023-04-19T04:55:59.281Z,18
2023-04-19T04:57:06.172Z,20
2023-04-19T04:58:13.011Z,16
2023-04-19T04:59:19.824Z,17
2023-04-19T05:00:26.687Z,19
2023-04-19T05:01:33.547Z,20
2023-04-19T05:02:40.378Z,23
2023-04-19T05:03:47.171Z,20
2023-04-19T05:04:53.872Z,20
2023-04-19T05:06:00.647Z,18
2023-04-19T05:07:07.647Z,17
2023-04-19T05:08:14.441Z,19
2023-04-19T05:09:21.198Z,15
2023-04-19T05:10:28.074Z,15
2023-04-19T05:11:34.909Z,16
2023-04-19T05:12:41.675Z,15
2023-04-19T05:13:48.494Z,14
2023-04-19T05:14:55.314Z,14
2023-04-19T05:16:02.150Z,15
2023-04-19T05:17:08.982Z,15
2023-04-19T05:18:15.858Z,14
2023-04-19T05:19:22.655Z,13
2023-04-19T05:20:32.310Z,12
2023-04-19T05:21:39.165Z,13
2023-04-19T05:22:45.928Z,13
2023-04-19T05:23:52.786Z,14
2023-04-19T05:24:59.637Z,14
2023-04-19T05:26:06.720Z,11
2023-04-19T05:27:16.172Z,12
2023-04-19T05:28:23.034Z,12
2023-04-19T05:29:29.938Z,13
2023-04-19T05:30:36.803Z,12
2023-04-19T05:31:43.700Z,13
2023-04-19T05:32:50.516Z,12
2023-04-19T05:33:57.381Z,13
2023-04-19T05:35:04.269Z,12
2023-04-19T05:36:11.308Z,13
2023-04-19T05:37:18.153Z,13
2023-04-19T05:38:25.028Z,14
2023-04-19T05:39:31.953Z,12
2023-04-19T05:40:38.832Z,13
2023-04-19T05:41:45.684Z,11
2023-04-19T05:42:52.560Z,12
2023-04-19T05:43:59.486Z,11
2023-04-19T05:45:06.423Z,13
2023-04-19T05:46:13.482Z,14
2023-04-19T05:47:20.312Z,11
2023-04-19T05:48:27.092Z,11
2023-04-19T05:49:33.987Z,12
2023-04-19T05:50:40.964Z,12
2023-04-19T05:51:47.806Z,12
2023-04-19T05:52:54.640Z,11
2023-04-19T05:54:01.480Z,11
2023-04-19T05:55:08.460Z,11
2023-04-19T05:56:15.261Z,12
2023-04-19T05:57:22.142Z,12
2023-04-19T05:58:29.042Z,12
2023-04-19T05:59:35.998Z,12
2023-04-19T06:00:42.923Z,12
2023-04-19T06:01:49.915Z,12
2023-04-19T06:02:56.828Z,12
2023-04-19T06:04:03.760Z,12
2023-04-19T06:05:11.165Z,12
2023-04-19T06:06:17.418Z,11
2023-04-19T06:07:31.593Z,13
2023-04-19T06:08:31.095Z,12
2023-04-19T06:09:38.928Z,11
2023-04-19T06:10:54.391Z,13
2023-04-19T06:11:52.645Z,13
2023-04-19T06:12:59.479Z,12
2023-04-19T06:14:06.242Z,13
2023-04-19T06:15:13.124Z,13
2023-04-19T06:16:20.105Z,11
2023-04-19T06:17:26.878Z,13
2023-04-19T06:18:33.655Z,14
2023-04-19T06:19:40.574Z,14
2023-04-19T06:20:47.430Z,11
2023-04-19T06:21:54.422Z,11
2023-04-19T06:23:01.259Z,13
2023-04-19T06:24:08.122Z,12
2023-04-19T06:25:14.937Z,10
2023-04-19T06:26:21.891Z,11
2023-04-19T06:27:28.767Z,11
2023-04-19T06:28:35.541Z,9
2023-04-19T06:29:42.364Z,8
2023-04-19T06:30:49.210Z,9
2023-04-19T06:31:56.095Z,9
2023-04-19T06:33:02.973Z,9
2023-04-19T06:34:09.859Z,9
2023-04-19T06:35:16.693Z,8
2023-04-19T06:36:23.536Z,9
2023-04-19T06:37:30.418Z,7
2023-04-19T06:38:37.143Z,8
2023-04-19T06:39:44.083Z,8
2023-04-19T06:40:50.920Z,8
2023-04-19T06:41:57.883Z,8
2023-04-19T06:43:05.793Z,8
2023-04-19T06:44:11.704Z,9
2023-04-19T06:45:18.569Z,9
2023-04-19T06:46:25.648Z,9
2023-04-19T06:47:33.501Z,10
2023-04-19T06:48:39.232Z,9
2023-04-19T06:49:46.043Z,9
2023-04-19T06:50:52.994Z,8
2023-04-19T06:51:59.958Z,10
2023-04-19T06:53:06.814Z,9
2023-04-19T06:54:13.634Z,7
2023-04-19T06:55:20.420Z,8
2023-04-19T06:56:27.192Z,9
2023-04-19T06:57:39.429Z,8
2023-04-19T06:58:46.220Z,8
2023-04-19T06:59:53.057Z,9
2023-04-19T07:00:59.916Z,8
2023-04-19T07:02:06.867Z,8
2023-04-19T07:03:13.775Z,9
2023-04-19T07:04:20.656Z,9
2023-04-19T07:05:27.267Z,9
2023-04-19T07:06:34.132Z,8
2023-04-19T07:07:41.082Z,8
2023-04-19T07:08:49.976Z,7
2023-04-19T07:09:54.690Z,8
2023-04-19T07:11:01.709Z,8
2023-04-19T07:12:08.338Z,7
2023-04-19T07:13:15.214Z,7
2023-04-19T07:14:22.338Z,8
2023-04-19T07:15:29.701Z,7
2023-04-19T07:16:39.329Z,8
2023-04-19T07:17:46.148Z,7
2023-04-19T07:18:52.924Z,7
2023-04-19T07:19:59.663Z,9
2023-04-19T07:21:06.638Z,8
2023-04-19T07:22:14.945Z,7
2023-04-19T07:23:21.400Z,7
2023-04-19T07:24:28.381Z,7
2023-04-19T07:25:35.371Z,8
2023-04-19T07:26:42.536Z,8
2023-04-19T07:27:49.384Z,8
2023-04-19T07:28:56.248Z,7
2023-04-19T07:30:03.045Z,8
2023-04-19T07:31:10.163Z,9
2023-04-19T07:32:17.019Z,9
2023-04-19T07:33:25.891Z,9
2023-04-19T07:34:33.819Z,9
2023-04-19T07:35:41.074Z,10
2023-04-19T07:36:47.994Z,9
2023-04-19T07:37:55.048Z,9
2023-04-19T07:39:02.037Z,9
2023-04-19T07:40:09.129Z,10
2023-04-19T07:41:16.122Z,9
2023-04-19T07:42:22.991Z,11
2023-04-19T07:43:29.823Z,10
2023-04-19T07:44:36.711Z,8
2023-04-19T07:45:43.524Z,8
2023-04-19T07:46:50.381Z,12
2023-04-19T07:47:57.252Z,13
2023-04-19T07:49:04.075Z,10
2023-04-19T07:50:10.964Z,11
2023-04-19T07:51:17.728Z,10
2023-04-19T07:52:24.584Z,12
2023-04-19T07:53:31.388Z,9
2023-04-19T07:54:38.146Z,10
2023-04-19T07:55:45.014Z,12
2023-04-19T07:56:51.879Z,8
2023-04-19T07:57:58.655Z,10
2023-04-19T07:59:08.717Z,9
2023-04-19T08:00:12.378Z,12
2023-04-19T08:01:19.367Z,11
2023-04-19T08:02:26.307Z,11
2023-04-19T08:03:33.290Z,10
2023-04-19T08:04:43.099Z,9
2023-04-19T08:05:49.861Z,9
2023-04-19T08:06:56.616Z,8
2023-04-19T08:08:03.429Z,7
2023-04-19T08:09:10.256Z,8
2023-04-19T08:10:17.133Z,9
2023-04-19T08:11:24.085Z,9
2023-04-19T08:12:36.644Z,8
2023-04-19T08:13:37.918Z,11
2023-04-19T08:14:56.635Z,9
2023-04-19T08:16:24.273Z,9
2023-04-19T08:17:21.773Z,8
2023-04-19T08:18:05.510Z,12
2023-04-19T08:19:12.352Z,10
2023-04-19T08:20:19.231Z,9
2023-04-19T08:21:34.557Z,9
2023-04-19T08:22:41.273Z,14
2023-04-19T08:23:52.038Z,25
2023-04-19T08:24:57.392Z,22
2023-04-19T08:26:05.383Z,14
2023-04-19T08:27:12.263Z,11
2023-04-19T08:28:19.221Z,8
2023-04-19T08:29:26.014Z,7
2023-04-19T08:30:32.878Z,9
2023-04-19T08:31:39.865Z,7
2023-04-19T08:32:46.769Z,7
2023-04-19T08:33:53.541Z,8
2023-04-19T08:35:00.436Z,8
2023-04-19T08:36:07.383Z,9
2023-04-19T08:37:14.209Z,7
2023-04-19T08:38:21.087Z,8
2023-04-19T08:39:32.717Z,8
2023-04-19T08:40:34.847Z,8
2023-04-19T08:41:46.409Z,7
2023-04-19T08:42:51.420Z,7
2023-04-19T08:43:58.264Z,8
2023-04-19T08:45:23.098Z,7
2023-04-19T08:46:12.915Z,9
2023-04-19T08:47:29.524Z,7
2023-04-19T08:48:26.630Z,11
2023-04-19T08:49:33.401Z,11
2023-04-19T08:50:48.694Z,13
2023-04-19T08:51:47.066Z,12
2023-04-19T08:52:57.319Z,11
2023-04-19T08:54:00.835Z,13
2023-04-19T08:55:07.829Z,14
2023-04-19T08:56:20.919Z,13
2023-04-19T08:57:21.648Z,14
2023-04-19T08:58:36.941Z,17
2023-04-19T08:59:35.310Z,18
2023-04-19T09:00:42.140Z,14
2023-04-19T09:01:49.015Z,14
2023-04-19T09:02:56.069Z,16
2023-04-19T09:04:10.153Z,17
2023-04-19T09:05:09.842Z,13
2023-04-19T09:06:16.617Z,14
2023-04-19T09:07:23.262Z,14
2023-04-19T09:08:30.172Z,12
2023-04-19T09:09:43.261Z,19
2023-04-19T09:10:44.554Z,17
2023-04-19T09:11:56.601Z,17
2023-04-19T09:13:03.423Z,17
2023-04-19T09:14:10.272Z,13
2023-04-19T09:15:17.119Z,20
2023-04-19T09:16:23.966Z,14
2023-04-19T09:17:30.830Z,13
2023-04-19T09:18:40.105Z,13
2023-04-19T09:19:54.847Z,17
2023-04-19T09:21:01.716Z,15
2023-04-19T09:22:09.754Z,55
2023-04-19T09:23:16.638Z,42
2023-04-19T09:24:23.647Z,26
2023-04-19T09:25:59.110Z,86
2023-04-19T09:26:55.637Z,33
2023-04-19T09:28:02.569Z,35
2023-04-19T09:29:15.437Z,26
2023-04-19T09:30:31.387Z,18
2023-04-19T09:31:47.801Z,22
2023-04-19T09:32:40.609Z,47
2023-04-19T09:33:50.213Z,46
2023-04-19T09:34:57.056Z,22
2023-04-19T09:36:03.872Z,23
2023-04-19T09:37:21.191Z,20
2023-04-19T09:38:20.813Z,17
2023-04-19T09:39:27.667Z,20
2023-04-19T09:40:34.560Z,20
2023-04-19T09:41:43.197Z,16
2023-04-19T09:44:14.172Z,17
2023-04-19T09:45:28.986Z,18
2023-04-19T09:46:19.468Z,24
2023-04-19T09:47:36.679Z,25
2023-04-19T09:48:43.555Z,26
2023-04-19T09:49:50.687Z,19
2023-04-19T09:51:10.676Z,20
2023-04-19T09:52:14.454Z,19
2023-04-19T09:53:23.228Z,18
2023-04-19T09:54:30.067Z,18
2023-04-19T09:55:48.788Z,20
2023-04-19T09:56:43.806Z,21
2023-04-19T09:57:50.553Z,19
2023-04-19T09:59:08.707Z,19
2023-04-19T10:00:04.328Z,20
2023-04-19T10:01:15.370Z,17
2023-04-19T10:02:18.411Z,18
2023-04-19T10:03:25.161Z,20
2023-04-19T10:04:43.924Z,18
2023-04-19T10:05:38.802Z,19
2023-04-19T10:06:58.767Z,17
2023-04-19T10:07:52.908Z,17
2023-04-19T10:08:59.233Z,18
2023-04-19T10:10:16.422Z,19
2023-04-19T10:11:12.873Z,22
2023-04-19T10:12:38.867Z,20
2023-04-19T10:13:26.919Z,20
2023-04-19T10:14:33.181Z,18
2023-04-19T10:17:10.702Z,17
2023-04-19T10:18:17.455Z,17
2023-04-19T10:19:24.347Z,18
2023-04-19T10:20:31.225Z,18
2023-04-19T10:21:46.225Z,21
2023-04-19T10:22:53.045Z,19
2023-04-19T10:24:00.061Z,17
2023-04-19T10:25:09.420Z,18
2023-04-19T10:26:21.501Z,16
2023-04-19T10:27:28.389Z,17
2023-04-19T10:28:35.238Z,18
2023-04-19T10:29:42.042Z,17
2023-04-19T10:30:59.231Z,18
2023-04-19T10:32:06.203Z,18
2023-04-19T10:33:15.412Z,19
2023-04-19T10:34:28.190Z,24
2023-04-19T10:35:40.222Z,24
2023-04-19T10:36:47.154Z,22
2023-04-19T10:37:54.046Z,21
2023-04-19T10:39:11.318Z,17
2023-04-19T10:40:26.144Z,19
2023-04-19T10:41:43.334Z,21
2023-04-19T10:42:58.109Z,19
2023-04-19T10:44:15.325Z,16
2023-04-19T10:45:22.108Z,16
2023-04-19T10:46:35.819Z,22
2023-04-19T10:47:43.149Z,21
2023-04-19T10:48:49.966Z,18
2023-04-19T10:49:56.798Z,15
2023-04-19T10:51:03.640Z,15
2023-04-19T10:52:15.601Z,14
2023-04-19T10:53:30.428Z,14
2023-04-19T10:54:48.336Z,14
2023-04-19T10:55:55.208Z,14
2023-04-19T10:57:02.120Z,14
2023-04-19T10:58:11.561Z,15
2023-04-19T10:59:18.551Z,18
2023-04-19T11:00:25.255Z,19
2023-04-19T11:01:32.118Z,17
2023-04-19T11:02:41.703Z,16
2023-04-19T11:03:48.564Z,16
2023-04-19T11:04:55.368Z,15
2023-04-19T11:06:02.265Z,15
2023-04-19T11:07:19.389Z,14
2023-04-19T11:08:26.238Z,16
2023-04-19T11:09:33.080Z,15
2023-04-19T11:10:39.973Z,13
2023-04-19T11:11:46.793Z,12
2023-04-19T11:12:53.731Z,14
2023-04-19T11:14:00.607Z,16
2023-04-19T11:15:07.478Z,14
2023-04-19T11:16:14.419Z,13
2023-04-19T11:17:21.287Z,12
2023-04-19T11:18:33.709Z,13
2023-04-19T11:19:40.462Z,12
2023-04-19T11:20:57.760Z,12
2023-04-19T11:22:04.573Z,11
2023-04-19T11:23:11.428Z,12
2023-04-19T11:24:21.009Z,12
2023-04-19T11:25:27.909Z,11
2023-04-19T11:26:34.844Z,13
2023-04-19T11:27:41.705Z,13
2023-04-19T11:28:48.530Z,14
2023-04-19T11:29:55.350Z,15
2023-04-19T11:31:07.394Z,16
2023-04-19T11:32:14.286Z,13
2023-04-19T11:33:21.031Z,9
2023-04-19T11:34:27.858Z,11
2023-04-19T11:35:39.837Z,10
2023-04-19T11:36:46.708Z,10
2023-04-19T11:37:53.521Z,10
2023-04-19T11:39:00.440Z,12
2023-04-19T11:40:10.143Z,11
2023-04-19T11:41:17.259Z,16
2023-04-19T11:42:24.088Z,13
2023-04-19T11:43:31.006Z,14
2023-04-19T11:44:37.959Z,12
2023-04-19T11:45:44.708Z,14
2023-04-19T11:46:53.174Z,12
2023-04-19T11:48:00.256Z,36
2023-04-19T11:49:07.014Z,11
2023-04-19T11:50:13.784Z,17
2023-04-19T11:51:30.901Z,11
2023-04-19T11:52:37.826Z,37
2023-04-19T11:53:44.580Z,30
2023-04-19T11:54:51.430Z,13
2023-04-19T11:55:58.284Z,12
2023-04-19T11:57:07.959Z,15
2023-04-19T11:58:14.781Z,13
2023-04-19T11:59:29.323Z,18
2023-04-19T12:00:36.136Z,18
2023-04-19T12:01:42.933Z,10
2023-04-19T12:02:49.841Z,15
2023-04-19T12:03:56.820Z,14
2023-04-19T12:05:03.474Z,14
2023-04-19T12:06:10.437Z,13
2023-04-19T12:07:16.977Z,17
2023-04-19T12:08:23.779Z,11
2023-04-19T12:09:36.188Z,10
2023-04-19T12:10:43.022Z,10
2023-04-19T12:12:00.221Z,11
2023-04-19T12:13:07.233Z,11
2023-04-19T12:14:19.466Z,10
2023-04-19T12:15:28.749Z,11
2023-04-19T12:16:44.635Z,11
2023-04-19T12:18:01.816Z,12
2023-04-19T12:19:08.585Z,14
2023-04-19T12:20:18.281Z,17
2023-04-19T12:21:33.061Z,14
2023-04-19T12:22:40.145Z,13
2023-04-19T12:23:47.011Z,11
2023-04-19T12:24:53.846Z,11
2023-04-19T12:26:00.962Z,11
2023-04-19T12:27:07.947Z,11
2023-04-19T12:28:14.825Z,10
2023-04-19T12:29:21.721Z,12
2023-04-19T12:30:28.572Z,10
2023-04-19T12:31:35.451Z,9
2023-04-19T12:32:42.270Z,9
2023-04-19T12:33:49.168Z,11
2023-04-19T12:34:55.982Z,9
2023-04-19T12:36:02.837Z,10
2023-04-19T12:37:09.872Z,10
2023-04-19T12:38:16.666Z,10
2023-04-19T12:39:23.603Z,9
2023-04-19T12:40:30.378Z,9
2023-04-19T12:41:37.200Z,10
2023-04-19T12:42:44.128Z,11
2023-04-19T12:43:51.031Z,9
2023-04-19T12:44:57.906Z,10
2023-04-19T12:46:04.790Z,9
2023-04-19T12:47:11.634Z,9
2023-04-19T12:48:18.430Z,11
2023-04-19T12:49:25.324Z,12
2023-04-19T12:50:32.134Z,13
2023-04-19T12:51:38.972Z,9
2023-04-19T12:52:45.711Z,12
2023-04-19T12:53:52.571Z,14
2023-04-19T12:54:59.419Z,14
2023-04-19T12:56:06.296Z,16
2023-04-19T12:57:13.035Z,13
2023-04-19T12:58:19.880Z,10
2023-04-19T12:59:26.730Z,15
2023-04-19T13:00:33.564Z,14
2023-04-19T13:01:40.475Z,12
2023-04-19T13:02:47.300Z,13
2023-04-19T13:03:55.504Z,11
2023-04-19T13:05:00.922Z,10
2023-04-19T13:06:07.826Z,9
2023-04-19T13:07:14.623Z,9
2023-04-19T13:08:26.146Z,10
2023-04-19T13:09:28.360Z,9
2023-04-19T13:10:35.215Z,10
2023-04-19T13:11:42.113Z,12
2023-04-19T13:12:48.911Z,10
2023-04-19T13:13:55.783Z,12
2023-04-19T13:15:04.369Z,10
2023-04-19T13:16:09.980Z,10
2023-04-19T13:17:16.809Z,10
2023-04-19T13:18:23.622Z,11
2023-04-19T13:19:30.390Z,9
2023-04-19T13:20:37.217Z,9
2023-04-19T13:21:44.067Z,9
2023-04-19T13:22:50.938Z,10
2023-04-19T13:23:57.786Z,10
2023-04-19T13:25:04.648Z,9
2023-04-19T13:26:11.742Z,9
2023-04-19T13:27:18.624Z,10
2023-04-19T13:28:26.306Z,10
2023-04-19T13:29:33.792Z,10
2023-04-19T13:30:40.827Z,10
2023-04-19T13:31:47.729Z,10
2023-04-19T13:32:54.529Z,11
2023-04-19T13:34:01.633Z,12
2023-04-19T13:35:08.703Z,11
2023-04-19T13:36:15.616Z,10
2023-04-19T13:37:22.498Z,12
2023-04-19T13:38:29.378Z,14
2023-04-19T13:39:36.183Z,20
2023-04-19T13:40:43.023Z,22
2023-04-19T13:41:49.895Z,28
2023-04-19T13:42:56.771Z,21
2023-04-19T13:44:03.643Z,26
2023-04-19T13:45:10.445Z,29
2023-04-19T13:46:17.372Z,20
2023-04-19T13:47:24.213Z,15
2023-04-19T13:48:31.020Z,15
2023-04-19T13:49:37.833Z,15
2023-04-19T13:50:44.614Z,16
2023-04-19T13:51:51.454Z,17
2023-04-19T13:52:58.270Z,16
2023-04-19T13:54:05.070Z,12
2023-04-19T13:55:11.874Z,12
2023-04-19T13:56:18.740Z,11
2023-04-19T13:57:25.579Z,13
2023-04-19T13:58:32.453Z,12
2023-04-19T13:59:39.271Z,13
2023-04-19T14:00:46.108Z,12
2023-04-19T14:01:52.928Z,12
2023-04-19T14:02:59.795Z,11
2023-04-19T14:04:06.962Z,9
2023-04-19T14:05:13.486Z,12
2023-04-19T14:06:20.429Z,11
2023-04-19T14:07:27.286Z,12
2023-04-19T14:08:35.011Z,11
2023-04-19T14:09:41.830Z,15
2023-04-19T14:10:48.663Z,11
2023-04-19T14:11:55.476Z,12
2023-04-19T14:13:02.421Z,11
2023-04-19T14:14:11.181Z,11
2023-04-19T14:15:17.980Z,12
2023-04-19T14:16:24.861Z,10
2023-04-19T14:17:31.683Z,11
2023-04-19T14:18:38.555Z,12
2023-04-19T14:19:45.306Z,11
2023-04-19T14:20:52.197Z,35
2023-04-19T14:21:59.064Z,19
2023-04-19T14:23:05.902Z,15
2023-04-19T14:24:12.818Z,12
2023-04-19T14:25:19.650Z,11
2023-04-19T14:26:27.685Z,11
2023-04-19T14:27:33.406Z,16
2023-04-19T14:28:40.368Z,27
2023-04-19T14:29:47.168Z,17
2023-04-19T14:30:54.060Z,15
2023-04-19T14:32:05.210Z,16
2023-04-19T14:33:07.863Z,68
2023-04-19T14:34:14.724Z,34
2023-04-19T14:35:21.590Z,17
2023-04-19T14:36:28.469Z,14
2023-04-19T14:37:35.394Z,12
2023-04-19T14:38:42.216Z,11
2023-04-19T14:39:49.110Z,11
2023-04-19T14:40:56.848Z,12
2023-04-19T14:42:04.143Z,11
2023-04-19T14:43:11.038Z,14
2023-04-19T14:44:17.852Z,14
2023-04-19T14:45:24.812Z,15
2023-04-19T14:46:31.701Z,15
2023-04-19T14:47:38.613Z,12
2023-04-19T14:48:45.356Z,12
2023-04-19T14:49:52.201Z,13
2023-04-19T14:50:59.103Z,12
2023-04-19T14:52:06.122Z,14
2023-04-19T14:53:13.036Z,12
2023-04-19T14:54:19.788Z,13
2023-04-19T14:55:26.637Z,13
2023-04-19T14:56:33.480Z,15
2023-04-19T14:57:40.317Z,12
2023-04-19T14:58:47.121Z,15
2023-04-19T14:59:54.141Z,15
2023-04-19T15:01:00.977Z,16
2023-04-19T15:02:13.092Z,18
2023-04-19T15:03:20.579Z,16
2023-04-19T15:04:29.028Z,15
2023-04-19T15:05:38.834Z,13
2023-04-19T15:06:45.723Z,21
2023-04-19T15:07:52.550Z,19
2023-04-19T15:08:59.457Z,21
2023-04-19T15:10:06.347Z,25
2023-04-19T15:11:13.165Z,29
2023-04-19T15:12:20.477Z,27
2023-04-19T15:13:27.372Z,31
2023-04-19T15:14:34.194Z,21
2023-04-19T15:15:41.282Z,16
2023-04-19T15:16:47.979Z,14
2023-04-19T15:17:54.809Z,14
2023-04-19T15:19:01.648Z,13
2023-04-19T15:20:08.525Z,14
2023-04-19T15:21:15.479Z,11
2023-04-19T15:22:22.370Z,12
2023-04-19T15:23:29.247Z,15
2023-04-19T15:24:36.063Z,14
2023-04-19T15:25:42.938Z,13
2023-04-19T15:26:49.816Z,15
2023-04-19T15:27:56.733Z,14
2023-04-19T15:29:03.651Z,33
2023-04-19T15:30:10.501Z,26
2023-04-19T15:31:17.507Z,18
2023-04-19T15:32:24.416Z,16
2023-04-19T15:33:31.344Z,17
2023-04-19T15:34:38.230Z,18
2023-04-19T15:35:45.029Z,14
2023-04-19T15:36:51.921Z,15
2023-04-19T15:37:58.758Z,19
2023-04-19T15:39:05.653Z,16
2023-04-19T15:40:12.636Z,18
2023-04-19T15:41:19.475Z,15
2023-04-19T15:42:26.305Z,16
2023-04-19T15:43:33.170Z,16
2023-04-19T15:44:42.793Z,16
2023-04-19T15:45:49.921Z,15
2023-04-19T15:46:57.294Z,16
2023-04-19T15:48:04.100Z,16
2023-04-19T15:49:10.849Z,14
2023-04-19T15:50:17.725Z,16
2023-04-19T15:51:24.766Z,15
2023-04-19T15:52:31.569Z,17
2023-04-19T15:53:38.436Z,16
2023-04-19T15:54:45.250Z,17
2023-04-19T15:55:53.336Z,20
2023-04-19T15:56:58.979Z,19
2023-04-19T15:58:05.822Z,17
2023-04-19T15:59:12.857Z,17
2023-04-19T16:00:19.628Z,17
2023-04-19T16:01:26.546Z,17
2023-04-19T16:02:33.710Z,17
2023-04-19T16:03:40.488Z,18
2023-04-19T16:04:48.376Z,17
2023-04-19T16:05:54.974Z,16
2023-04-19T16:07:01.943Z,14
2023-04-19T16:08:08.934Z,15
2023-04-19T16:09:16.296Z,15
2023-04-19T16:10:22.629Z,14
2023-04-19T16:11:29.775Z,17
2023-04-19T16:12:37.192Z,19
2023-04-19T16:13:44.383Z,19
2023-04-19T16:14:51.730Z,18
2023-04-19T16:16:01.010Z,20
2023-04-19T16:17:08.537Z,18
2023-04-19T16:18:15.503Z,17
2023-04-19T16:19:23.182Z,17
2023-04-19T16:20:30.074Z,18
2023-04-19T16:21:36.801Z,17
2023-04-19T16:22:43.665Z,15
2023-04-19T16:23:50.615Z,16
2023-04-19T16:24:57.430Z,17
2023-04-19T16:26:04.252Z,17
2023-04-19T16:27:14.529Z,19
2023-04-19T16:28:21.388Z,19
2023-04-19T16:29:28.325Z,20
2023-04-19T16:30:35.192Z,19
2023-04-19T16:31:42.111Z,17
2023-04-19T16:32:48.980Z,18
2023-04-19T16:34:00.263Z,18
2023-04-19T16:35:07.184Z,19
2023-04-19T16:36:14.097Z,19
2023-04-19T16:37:22.398Z,20
2023-04-19T16:38:31.257Z,20
2023-04-19T16:39:38.413Z,17
2023-04-19T16:40:45.433Z,19
2023-04-19T16:41:52.341Z,19
2023-04-19T16:42:59.329Z,19
2023-04-19T16:44:06.235Z,19
2023-04-19T16:45:13.064Z,20
2023-04-19T16:46:23.727Z,18
2023-04-19T16:47:30.683Z,18
2023-04-19T16:48:37.862Z,17
2023-04-19T16:49:44.881Z,18
2023-04-19T16:50:52.377Z,18
2023-04-19T16:51:59.455Z,16
2023-04-19T16:53:06.329Z,15
2023-04-19T16:54:13.221Z,17
2023-04-19T16:55:20.154Z,16
2023-04-19T16:56:27.003Z,16
2023-04-19T16:57:33.909Z,16
2023-04-19T16:58:41.691Z,18
2023-04-19T16:59:48.633Z,16
2023-04-19T17:00:55.547Z,17
2023-04-19T17:02:02.867Z,16
2023-04-19T17:03:09.621Z,18
2023-04-19T17:04:16.460Z,16
2023-04-19T17:05:25.026Z,18
2023-04-19T17:06:31.929Z,19
2023-04-19T17:07:38.755Z,18
2023-04-19T17:08:48.256Z,19
2023-04-19T17:09:56.663Z,17
2023-04-19T17:11:03.473Z,16